createdAt,value
2022-07-26T00:00:38.624Z,21.46
2022-07-26T00:02:39.678Z,21.41
2022-07-26T00:04:41.162Z,21.32
2022-07-26T00:06:42.295Z,21.2
2022-07-26T00:08:43.328Z,21.25
2022-07-26T00:10:44.196Z,21.22
2022-07-26T00:12:45.485Z,21.25
2022-07-26T00:16:48.026Z,21.33
2022-07-26T00:18:49.268Z,21.36
2022-07-26T00:20:50.678Z,21.36
2022-07-26T00:22:52.583Z,21.42
2022-07-26T00:24:54.126Z,21.48
2022-07-26T00:26:55.619Z,21.45
2022-07-26T00:28:56.678Z,21.45
2022-07-26T00:30:57.854Z,21.42
2022-07-26T00:32:59.245Z,21.46
2022-07-26T00:35:00.692Z,21.41
2022-07-26T00:37:01.819Z,21.38
2022-07-26T00:39:03.581Z,21.41
2022-07-26T00:41:04.906Z,21.36
2022-07-26T00:43:06.115Z,21.34
2022-07-26T00:45:07.643Z,21.34
2022-07-26T00:47:09.375Z,21.3
2022-07-26T00:49:10.717Z,21.23
2022-07-26T00:51:11.662Z,21.25
2022-07-26T00:53:13.010Z,21.16
2022-07-26T00:55:14.371Z,21.13
2022-07-26T00:57:15.877Z,21.13
2022-07-26T00:59:17.594Z,21.03
2022-07-26T01:01:19.579Z,20.98
2022-07-26T01:03:20.062Z,20.98
2022-07-26T01:05:21.677Z,20.89
2022-07-26T01:07:22.508Z,20.92
2022-07-26T01:09:24.297Z,20.87
2022-07-26T01:11:26.003Z,20.83
2022-07-26T01:13:29.711Z,20.83
2022-07-26T01:15:28.859Z,20.81
2022-07-26T01:17:29.935Z,20.81
2022-07-26T01:19:31.230Z,20.79
2022-07-26T01:21:32.851Z,20.81
2022-07-26T01:23:33.853Z,20.8
2022-07-26T01:25:40.926Z,20.77
2022-07-26T01:27:36.262Z,20.68
2022-07-26T01:29:38.089Z,20.61
2022-07-26T01:31:38.990Z,20.57
2022-07-26T01:33:40.402Z,20.65
2022-07-26T01:35:41.795Z,20.65
2022-07-26T01:37:42.764Z,20.77
2022-07-26T01:39:44.308Z,20.69
2022-07-26T01:41:45.196Z,20.72
2022-07-26T01:43:46.141Z,20.6
2022-07-26T01:45:47.394Z,20.51
2022-07-26T01:47:49.185Z,20.4
2022-07-26T01:49:50.194Z,20.35
2022-07-26T01:51:51.133Z,20.3
2022-07-26T01:53:52.251Z,20.18
2022-07-26T01:55:53.880Z,20.06
2022-07-26T01:57:55.016Z,19.92
2022-07-26T01:59:56.029Z,19.85
2022-07-26T02:01:57.682Z,19.8
2022-07-26T02:03:59.111Z,19.8
2022-07-26T02:06:00.852Z,19.78
2022-07-26T02:08:01.945Z,19.77
2022-07-26T02:10:03.098Z,19.72
2022-07-26T02:12:04.685Z,19.63
2022-07-26T02:14:06.351Z,19.58
2022-07-26T02:16:07.322Z,19.53
2022-07-26T02:18:09.090Z,19.52
2022-07-26T02:20:10.162Z,19.53
2022-07-26T02:22:11.805Z,19.46
2022-07-26T02:24:12.877Z,19.48
2022-07-26T02:26:14.091Z,19.37
2022-07-26T02:28:15.753Z,19.28
2022-07-26T02:30:17.316Z,19.28
2022-07-26T02:32:19.008Z,19.3
2022-07-26T02:34:20.789Z,19.31
2022-07-26T02:36:22.308Z,19.28
2022-07-26T02:38:24.587Z,19.12
2022-07-26T02:40:25.211Z,19.25
2022-07-26T02:42:26.985Z,19.28
2022-07-26T02:44:28.167Z,19.31
2022-07-26T02:46:29.409Z,19.06
2022-07-26T02:49:14.662Z,19.08
2022-07-26T02:51:16.254Z,19.11
2022-07-26T02:53:17.069Z,19.25
2022-07-26T02:55:18.198Z,19.32
2022-07-26T02:57:19.228Z,19.25
2022-07-26T02:59:20.477Z,19.24
2022-07-26T03:01:22.136Z,19.15
2022-07-26T03:03:23.829Z,19.02
2022-07-26T03:05:25.730Z,18.99
2022-07-26T03:07:26.657Z,18.91
2022-07-26T03:09:27.574Z,18.86
2022-07-26T03:11:28.705Z,18.83
2022-07-26T03:13:29.702Z,18.83
2022-07-26T03:15:31.008Z,18.87
2022-07-26T03:17:32.317Z,18.83
2022-07-26T03:19:33.483Z,18.68
2022-07-26T03:21:35.178Z,18.75
2022-07-26T03:23:36.249Z,18.6
2022-07-26T03:25:37.772Z,18.63
2022-07-26T03:27:38.683Z,18.54
2022-07-26T03:29:40.111Z,18.36
2022-07-26T03:31:41.510Z,18.37
2022-07-26T03:33:42.985Z,18.32
2022-07-26T03:35:44.875Z,18.2
2022-07-26T03:37:46.713Z,18.21
2022-07-26T03:39:47.522Z,18.25
2022-07-26T03:41:48.708Z,18.3
2022-07-26T03:43:50.179Z,18.31
2022-07-26T03:45:51.426Z,18.28
2022-07-26T03:49:54.488Z,18.23
2022-07-26T03:51:56.066Z,18.22
2022-07-26T03:53:56.958Z,18.18
2022-07-26T03:55:58.810Z,18.09
2022-07-26T03:57:59.830Z,17.93
2022-07-26T04:00:01.309Z,17.84
2022-07-26T04:02:03.117Z,17.77
2022-07-26T04:04:04.981Z,17.81
2022-07-26T04:06:06.129Z,18.04
2022-07-26T04:08:07.844Z,18.15
2022-07-26T04:10:09.555Z,18.25
2022-07-26T04:12:10.464Z,18.24
2022-07-26T04:14:12.117Z,18.27
2022-07-26T04:16:13.255Z,18.3
2022-07-26T04:18:14.653Z,18.32
2022-07-26T04:20:16.347Z,18.3
2022-07-26T04:22:17.884Z,18.3
2022-07-26T04:24:19.143Z,18.31
2022-07-26T04:26:20.517Z,18.43
2022-07-26T04:28:21.582Z,18.52
2022-07-26T04:30:23.204Z,18.56
2022-07-26T04:32:25.049Z,18.56
2022-07-26T04:34:26.499Z,18.56
2022-07-26T04:36:28.217Z,18.58
2022-07-26T04:38:29.572Z,18.55
2022-07-26T04:40:30.909Z,18.52
2022-07-26T04:42:31.861Z,18.39
2022-07-26T04:44:33.640Z,18.32
2022-07-26T04:46:34.827Z,18.64
2022-07-26T04:48:36.585Z,18.58
2022-07-26T04:50:38.034Z,18.54
2022-07-26T04:52:39.419Z,18.59
2022-07-26T04:54:40.516Z,18.6
2022-07-26T04:56:41.626Z,18.4
2022-07-26T04:58:42.896Z,18.4
2022-07-26T05:01:03.110Z,18.19
2022-07-26T05:02:45.685Z,18.28
2022-07-26T05:04:47.378Z,18.37
2022-07-26T05:06:48.770Z,18.73
2022-07-26T05:08:49.810Z,19.25
2022-07-26T05:10:55.352Z,19.53
2022-07-26T05:12:52.066Z,20.08
2022-07-26T05:14:53.390Z,20.34
2022-07-26T05:16:54.871Z,19.98
2022-07-26T05:18:56.281Z,20.33
2022-07-26T05:20:57.429Z,21
2022-07-26T05:22:58.474Z,20.52
2022-07-26T05:24:59.876Z,20.71
2022-07-26T05:27:01.582Z,20.87
2022-07-26T05:29:02.754Z,21.31
2022-07-26T05:31:03.985Z,21.41
2022-07-26T05:33:05.366Z,21.67
2022-07-26T05:35:06.609Z,22.02
2022-07-26T05:37:07.453Z,22.69
2022-07-26T05:39:11.641Z,22.29
2022-07-26T05:41:10.293Z,22.02
2022-07-26T05:43:11.302Z,22.29
2022-07-26T05:45:12.291Z,22.45
2022-07-26T05:47:13.821Z,21.63
2022-07-26T05:49:15.244Z,21.71
2022-07-26T05:51:16.001Z,21.61
2022-07-26T05:53:17.202Z,21.74
2022-07-26T05:55:18.668Z,21.87
2022-07-26T05:57:19.821Z,22.15
2022-07-26T05:59:21.411Z,22.54
2022-07-26T06:01:23.140Z,22.82
2022-07-26T06:03:24.068Z,22.44
2022-07-26T06:05:25.451Z,22.18
2022-07-26T06:07:26.584Z,21.83
2022-07-26T06:11:29.460Z,21.72
2022-07-26T06:13:30.808Z,21.89
2022-07-26T06:15:32.475Z,21.78
2022-07-26T06:17:34.059Z,22.28
2022-07-26T06:19:35.539Z,21.81
2022-07-26T06:21:37.287Z,21.65
2022-07-26T06:23:38.421Z,21.83
2022-07-26T06:25:40.116Z,22.73
2022-07-26T06:27:41.269Z,22.64
2022-07-26T06:29:42.217Z,22.98
2022-07-26T06:31:43.730Z,22.11
2022-07-26T06:33:45.220Z,22.14
2022-07-26T06:35:46.995Z,22.59
2022-07-26T06:37:48.420Z,22.43
2022-07-26T06:39:49.609Z,23.05
2022-07-26T06:41:50.551Z,23.33
2022-07-26T06:43:51.344Z,23.28
2022-07-26T06:45:52.402Z,23.28
2022-07-26T06:47:53.510Z,23.26
2022-07-26T06:51:55.640Z,24.01
2022-07-26T06:53:57.458Z,23.39
2022-07-26T06:55:58.357Z,24.27
2022-07-26T06:57:59.487Z,24.48
2022-07-26T07:00:01.214Z,24.43
2022-07-26T07:02:02.865Z,24.18
2022-07-26T07:04:04.076Z,23.69
2022-07-26T07:06:05.006Z,23.87
2022-07-26T07:08:06.699Z,23.93
2022-07-26T07:10:08.040Z,24.39
2022-07-26T07:12:10.539Z,24.29
2022-07-26T07:14:11.013Z,24.09
2022-07-26T07:16:12.464Z,24.14
2022-07-26T07:18:14.022Z,24.15
2022-07-26T07:20:15.196Z,24.42
2022-07-26T07:22:16.707Z,24.2
2022-07-26T07:24:18.004Z,23.68
2022-07-26T07:26:19.204Z,23.62
2022-07-26T07:28:20.288Z,23.63
2022-07-26T07:30:21.972Z,23.58
2022-07-26T07:32:23.189Z,23.34
2022-07-26T07:34:24.337Z,23.74
2022-07-26T07:36:25.449Z,23.62
2022-07-26T07:38:26.916Z,24.02
2022-07-26T07:40:27.836Z,24.31
2022-07-26T07:42:29.159Z,24.32
2022-07-26T07:44:30.034Z,23.9
2022-07-26T07:46:30.854Z,24.58
2022-07-26T07:48:32.283Z,24.77
2022-07-26T07:50:34.116Z,24.73
2022-07-26T07:54:37.137Z,25.1
2022-07-26T07:56:38.816Z,24.75
2022-07-26T07:58:40.403Z,24.67
2022-07-26T08:00:41.379Z,24.4
2022-07-26T08:02:42.460Z,24.2
2022-07-26T08:04:43.549Z,24.13
2022-07-26T08:06:47.736Z,23.71
2022-07-26T08:08:48.418Z,24
2022-07-26T08:10:49.192Z,24.39
2022-07-26T08:12:51.152Z,24.19
2022-07-26T08:14:50.667Z,24.18
2022-07-26T08:16:51.922Z,23.98
2022-07-26T08:18:57.489Z,23.82
2022-07-26T08:20:54.803Z,23.2
2022-07-26T08:22:56.515Z,23.53
2022-07-26T08:24:57.683Z,23.53
2022-07-26T08:26:59.296Z,23.86
2022-07-26T08:29:00.720Z,24.17
2022-07-26T08:31:01.856Z,24.5
2022-07-26T08:33:03.095Z,23.95
2022-07-26T08:35:17.201Z,24.53
2022-07-26T08:37:16.833Z,24.05
2022-07-26T08:39:06.888Z,24.18
2022-07-26T08:41:07.726Z,24.6
2022-07-26T08:43:08.856Z,24.24
2022-07-26T08:45:10.387Z,24.94
2022-07-26T08:47:11.544Z,24.55
2022-07-26T08:49:13.401Z,25.07
2022-07-26T08:51:14.035Z,24.56
2022-07-26T08:53:15.175Z,24.67
2022-07-26T08:55:16.582Z,24.66
2022-07-26T08:57:18.163Z,24.66
2022-07-26T08:59:21.113Z,24.19
2022-07-26T09:01:20.633Z,24.27
2022-07-26T09:03:21.808Z,24.93
2022-07-26T09:05:23.139Z,24.73
2022-07-26T09:07:24.828Z,24.86
2022-07-26T09:09:25.865Z,24.8
2022-07-26T09:11:27.541Z,24.5
2022-07-26T09:13:28.633Z,24.54
2022-07-26T09:15:30.123Z,24.47
2022-07-26T09:17:31.098Z,24.65
2022-07-26T09:19:32.389Z,24.49
2022-07-26T09:21:33.852Z,25.04
2022-07-26T09:23:35.266Z,24.67
2022-07-26T09:25:36.552Z,24.39
2022-07-26T09:27:37.539Z,25.11
2022-07-26T09:29:39.001Z,24.61
2022-07-26T09:31:40.435Z,24.67
2022-07-26T09:34:25.337Z,24.34
2022-07-26T09:36:26.391Z,24.48
2022-07-26T09:38:27.445Z,24.28
2022-07-26T09:40:28.665Z,24.64
2022-07-26T09:42:30.002Z,25
2022-07-26T09:44:30.692Z,24.54
2022-07-26T09:46:32.201Z,24.6
2022-07-26T09:48:52.640Z,25.3
2022-07-26T09:50:34.919Z,25.25
2022-07-26T09:52:36.296Z,25.3
2022-07-26T09:54:37.790Z,24.84
2022-07-26T09:56:39.213Z,24.85
2022-07-26T09:58:40.783Z,24.82
2022-07-26T10:00:42.263Z,25.02
2022-07-26T10:02:43.908Z,25.13
2022-07-26T10:04:45.491Z,25.76
2022-07-26T10:06:46.654Z,25.91
2022-07-26T10:08:47.695Z,25.58
2022-07-26T10:10:48.748Z,25.81
2022-07-26T10:12:49.990Z,24.85
2022-07-26T10:14:51.423Z,25.2
2022-07-26T10:16:52.904Z,25.25
2022-07-26T10:18:54.197Z,25.82
2022-07-26T10:20:55.074Z,25.66
2022-07-26T10:24:58.335Z,25.25
2022-07-26T10:26:58.969Z,25.84
2022-07-26T10:29:00.172Z,26.09
2022-07-26T10:31:01.610Z,25.79
2022-07-26T10:33:02.732Z,25.52
2022-07-26T10:35:04.054Z,25.68
2022-07-26T10:37:04.898Z,25.85
2022-07-26T10:39:06.200Z,26.01
2022-07-26T10:41:07.882Z,25.68
2022-07-26T10:43:30.464Z,26.53
2022-07-26T10:45:10.443Z,26.29
2022-07-26T10:47:11.419Z,26.1
2022-07-26T10:49:12.946Z,24.69
2022-07-26T10:51:14.388Z,24.87
2022-07-26T10:53:15.373Z,24.83
2022-07-26T10:55:16.259Z,24.9
2022-07-26T10:57:17.082Z,24.36
2022-07-26T10:59:33.018Z,24.66
2022-07-26T11:01:20.057Z,24.57
2022-07-26T11:03:21.582Z,24.73
2022-07-26T11:05:22.741Z,25.29
2022-07-26T11:07:24.489Z,25.46
2022-07-26T11:11:27.166Z,25.27
2022-07-26T11:13:28.866Z,24.86
2022-07-26T11:15:30.051Z,24.73
2022-07-26T11:17:31.622Z,24.51
2022-07-26T11:19:33.093Z,24.16
2022-07-26T11:21:34.819Z,24.4
2022-07-26T11:23:35.905Z,24.51
2022-07-26T11:25:36.780Z,24.41
2022-07-26T11:27:37.971Z,24.42
2022-07-26T11:29:40.890Z,25.27
2022-07-26T11:31:48.232Z,25.88
2022-07-26T11:33:42.109Z,26.34
2022-07-26T11:35:43.671Z,25.77
2022-07-26T11:37:44.854Z,25.86
2022-07-26T11:39:46.585Z,26.24
2022-07-26T11:41:47.499Z,25.81
2022-07-26T11:43:49.268Z,25.21
2022-07-26T11:45:50.153Z,25.69
2022-07-26T11:47:51.551Z,25.22
2022-07-26T11:50:11.506Z,25.3
2022-07-26T11:51:54.151Z,25.21
2022-07-26T11:53:54.966Z,25.45
2022-07-26T11:55:56.257Z,25.12
2022-07-26T11:57:57.119Z,26.09
2022-07-26T11:59:58.214Z,26.45
2022-07-26T12:01:59.969Z,27.45
2022-07-26T12:04:01.383Z,27.42
2022-07-26T12:06:02.018Z,27.18
2022-07-26T12:08:03.074Z,27.32
2022-07-26T12:10:04.451Z,26.84
2022-07-26T12:12:06.113Z,27.67
2022-07-26T12:14:07.491Z,27.76
2022-07-26T12:16:08.528Z,28.07
2022-07-26T12:18:09.843Z,27.34
2022-07-26T12:20:11.523Z,27.55
2022-07-26T12:22:12.891Z,26.53
2022-07-26T12:24:14.032Z,26.03
2022-07-26T12:26:14.792Z,25.76
2022-07-26T12:28:15.731Z,25.88
2022-07-26T12:30:17.158Z,26.09
2022-07-26T12:32:18.884Z,27.34
2022-07-26T12:34:20.154Z,27.32
2022-07-26T12:36:26.882Z,26.35
2022-07-26T12:38:21.998Z,27.04
2022-07-26T12:40:23.311Z,27.27
2022-07-26T12:42:33.511Z,27.69
2022-07-26T12:44:26.212Z,27.45
2022-07-26T12:46:27.766Z,27.13
2022-07-26T12:48:28.702Z,27.79
2022-07-26T12:50:30.095Z,26.93
2022-07-26T12:52:31.505Z,26.56
2022-07-26T12:54:32.751Z,26.35
2022-07-26T12:56:34.532Z,25.87
2022-07-26T12:58:36.320Z,26.39
2022-07-26T13:00:37.839Z,27.08
2022-07-26T13:02:39.604Z,27.75
2022-07-26T13:04:41.380Z,27.91
2022-07-26T13:06:42.664Z,28.17
2022-07-26T13:08:43.842Z,28.39
2022-07-26T13:10:44.740Z,28.25
2022-07-26T13:12:46.098Z,28.37
2022-07-26T13:14:47.807Z,27.37
2022-07-26T13:16:48.946Z,27.77
2022-07-26T13:18:50.095Z,27.93
2022-07-26T13:20:50.898Z,28.29
2022-07-26T13:22:52.193Z,28.1
2022-07-26T13:24:53.377Z,28.12
2022-07-26T13:26:54.305Z,26.77
2022-07-26T13:28:55.766Z,26.76
2022-07-26T13:30:57.461Z,26.86
2022-07-26T13:32:58.454Z,26.43
2022-07-26T13:34:59.235Z,26.53
2022-07-26T13:37:00.389Z,26.78
2022-07-26T13:39:02.030Z,26.95
2022-07-26T13:41:03.086Z,26.27
2022-07-26T13:43:04.725Z,26.17
2022-07-26T13:45:05.973Z,26.3
2022-07-26T13:47:07.319Z,26.75
2022-07-26T13:49:08.764Z,26.84
2022-07-26T13:51:09.870Z,27.55
2022-07-26T13:53:11.267Z,28.39
2022-07-26T13:55:12.978Z,28.64
2022-07-26T13:57:14.052Z,27.92
2022-07-26T13:59:15.203Z,28.26
2022-07-26T14:01:16.325Z,28.66
2022-07-26T14:03:18.051Z,28.85
2022-07-26T14:05:18.780Z,29.32
2022-07-26T14:07:20.132Z,28.63
2022-07-26T14:09:21.187Z,28.31
2022-07-26T14:11:22.923Z,28.61
2022-07-26T14:13:23.693Z,29.18
2022-07-26T14:15:24.687Z,29.27
2022-07-26T14:17:25.669Z,28.98
2022-07-26T14:19:26.497Z,28.27
2022-07-26T14:21:28.045Z,28.54
2022-07-26T14:23:29.663Z,28.51
2022-07-26T14:25:32.075Z,27.17
2022-07-26T14:27:32.575Z,27.32
2022-07-26T14:29:33.833Z,27.06
2022-07-26T14:31:35.351Z,26.81
2022-07-26T14:33:36.583Z,26.65
2022-07-26T14:35:37.472Z,26.51
2022-07-26T14:37:42.272Z,26.29
2022-07-26T14:39:39.756Z,27.07
2022-07-26T14:41:41.125Z,28.31
2022-07-26T14:43:42.309Z,28.2
2022-07-26T14:45:43.603Z,27.95
2022-07-26T14:47:44.840Z,27.75
2022-07-26T14:49:45.914Z,28.37
2022-07-26T14:51:47.962Z,28.91
2022-07-26T14:53:48.594Z,28.86
2022-07-26T14:55:49.546Z,28.28
2022-07-26T14:57:50.519Z,27.81
2022-07-26T14:59:51.871Z,27.65
2022-07-26T15:01:52.945Z,27.41
2022-07-26T15:03:54.102Z,28.15
2022-07-26T15:05:55.580Z,28.12
2022-07-26T15:07:56.370Z,27.7
2022-07-26T15:09:58.000Z,27.59
2022-07-26T15:11:59.556Z,27.45
2022-07-26T15:14:05.537Z,27.85
2022-07-26T15:16:02.304Z,27.57
2022-07-26T15:18:03.335Z,26.89
2022-07-26T15:20:04.420Z,27.2
2022-07-26T15:22:05.440Z,27.57
2022-07-26T15:24:06.550Z,27.97
2022-07-26T15:26:08.285Z,27.32
2022-07-26T15:28:09.883Z,27.29
2022-07-26T15:30:13.571Z,26.83
2022-07-26T15:32:12.493Z,27.22
2022-07-26T15:34:14.233Z,27.32
2022-07-26T15:36:14.968Z,26.96
2022-07-26T15:38:16.050Z,26.14
2022-07-26T15:40:17.748Z,26.3
2022-07-26T15:42:19.182Z,26.22
2022-07-26T15:44:21.605Z,25.67
2022-07-26T15:46:22.588Z,25.66
2022-07-26T15:48:24.064Z,25.26
2022-07-26T15:50:25.045Z,25.09
2022-07-26T15:52:26.609Z,24.95
2022-07-26T15:54:27.889Z,24.92
2022-07-26T15:56:28.862Z,24.97
2022-07-26T15:58:30.588Z,25
2022-07-26T16:00:31.852Z,25.01
2022-07-26T16:02:33.152Z,25.02
2022-07-26T16:04:34.331Z,25.04
2022-07-26T16:06:35.211Z,24.96
2022-07-26T16:08:47.379Z,25.15
2022-07-26T16:10:38.508Z,25.27
2022-07-26T16:12:40.224Z,25.45
2022-07-26T16:14:41.815Z,25.81
2022-07-26T16:16:42.752Z,25.52
2022-07-26T16:19:28.145Z,26.12
2022-07-26T16:21:37.250Z,26.82
2022-07-26T16:23:30.700Z,26.76
2022-07-26T16:25:31.635Z,26.44
2022-07-26T16:27:33.383Z,26.24
2022-07-26T16:29:35.459Z,26.36
2022-07-26T16:31:37.269Z,27.32
2022-07-26T16:33:41.951Z,27.24
2022-07-26T16:35:40.296Z,27.08
2022-07-26T16:37:41.210Z,27.14
2022-07-26T16:39:42.903Z,27.14
2022-07-26T16:41:44.231Z,26.43
2022-07-26T16:43:45.105Z,25.87
2022-07-26T16:45:46.651Z,25.56
2022-07-26T16:47:47.879Z,25.28
2022-07-26T16:51:50.573Z,25.34
2022-07-26T16:53:51.560Z,25.33
2022-07-26T16:55:52.743Z,25.34
2022-07-26T16:57:54.551Z,25.13
2022-07-26T16:59:55.640Z,25.18
2022-07-26T17:01:59.641Z,25.43
2022-07-26T17:03:58.367Z,25.93
2022-07-26T17:06:02.974Z,26.06
2022-07-26T17:08:01.537Z,25.82
2022-07-26T17:10:02.462Z,25.71
2022-07-26T17:12:06.497Z,25.69
2022-07-26T17:14:05.735Z,25.55
2022-07-26T17:16:06.949Z,25.25
2022-07-26T17:18:08.128Z,25.33
2022-07-26T17:20:09.231Z,25.32
2022-07-26T17:22:10.317Z,25.25
2022-07-26T17:24:11.706Z,25.06
2022-07-26T17:26:12.909Z,24.92
2022-07-26T17:28:14.125Z,24.83
2022-07-26T17:30:15.891Z,24.83
2022-07-26T17:32:17.578Z,24.79
2022-07-26T17:34:18.812Z,24.66
2022-07-26T17:36:20.516Z,24.66
2022-07-26T17:38:22.320Z,24.61
2022-07-26T17:40:23.353Z,24.65
2022-07-26T17:42:25.001Z,24.67
2022-07-26T17:44:26.215Z,24.58
2022-07-26T17:46:27.684Z,24.57
2022-07-26T17:48:29.001Z,24.53
2022-07-26T17:50:37.950Z,24.6
2022-07-26T17:52:31.472Z,24.55
2022-07-26T17:54:32.656Z,24.54
2022-07-26T17:56:34.247Z,24.54
2022-07-26T17:58:35.729Z,24.39
2022-07-26T18:00:36.853Z,24.36
2022-07-26T18:02:38.166Z,24.31
2022-07-26T18:04:39.544Z,24.28
2022-07-26T18:06:41.189Z,24.28
2022-07-26T18:08:42.676Z,24.23
2022-07-26T18:10:46.429Z,24.08
2022-07-26T18:12:44.522Z,24.01
2022-07-26T18:14:45.827Z,23.84
2022-07-26T18:16:47.452Z,23.8
2022-07-26T18:18:48.662Z,23.73
2022-07-26T18:20:50.038Z,23.56
2022-07-26T18:22:51.630Z,23.47
2022-07-26T18:24:53.074Z,23.4
2022-07-26T18:26:54.519Z,23.32
2022-07-26T18:30:57.143Z,23.16
2022-07-26T18:32:58.611Z,22.95
2022-07-26T18:34:59.954Z,22.81
2022-07-26T18:37:01.682Z,22.62
2022-07-26T18:39:03.211Z,22.52
2022-07-26T18:41:05.001Z,22.42
2022-07-26T18:43:06.320Z,22.24
2022-07-26T18:45:07.242Z,22.31
2022-07-26T18:47:08.764Z,22.19
2022-07-26T18:49:10.099Z,22.23
2022-07-26T18:51:10.699Z,22.11
2022-07-26T18:53:11.577Z,21.94
2022-07-26T18:55:12.801Z,21.78
2022-07-26T18:57:13.897Z,21.65
2022-07-26T18:59:15.599Z,21.55
2022-07-26T19:01:16.441Z,21.5
2022-07-26T19:03:18.090Z,21.43
2022-07-26T19:05:19.074Z,21.32
2022-07-26T19:07:20.300Z,21.29
2022-07-26T19:09:21.524Z,21.26
2022-07-26T19:11:22.607Z,21.17
2022-07-26T19:13:23.809Z,21.12
2022-07-26T19:15:25.560Z,21.28
2022-07-26T19:17:27.119Z,21.25
2022-07-26T19:19:28.051Z,21.2
2022-07-26T19:21:29.617Z,21.28
2022-07-26T19:23:30.622Z,21.27
2022-07-26T19:25:32.185Z,21.3
2022-07-26T19:27:33.400Z,21.24
2022-07-26T19:29:34.729Z,21.2
2022-07-26T19:31:35.668Z,21.23
2022-07-26T19:33:37.176Z,21.12
2022-07-26T19:35:38.615Z,21.04
2022-07-26T19:37:40.169Z,20.89
2022-07-26T19:39:41.925Z,20.83
2022-07-26T19:41:43.560Z,20.87
2022-07-26T19:43:44.998Z,20.84
2022-07-26T19:45:45.921Z,20.7
2022-07-26T19:47:47.528Z,20.55
2022-07-26T19:49:48.526Z,20.38
2022-07-26T19:51:50.109Z,20.24
2022-07-26T19:53:51.703Z,20.09
2022-07-26T19:55:52.586Z,20.22
2022-07-26T19:57:53.696Z,20.3
2022-07-26T19:59:55.322Z,20.24
2022-07-26T20:01:58.238Z,20.08
2022-07-26T20:03:58.082Z,20.03
2022-07-26T20:05:59.013Z,19.92
2022-07-26T20:08:00.638Z,19.84
2022-07-26T20:10:02.142Z,19.81
2022-07-26T20:12:03.057Z,19.68
2022-07-26T20:14:04.464Z,19.55
2022-07-26T20:16:06.159Z,19.49
2022-07-26T20:18:07.142Z,19.39
2022-07-26T20:20:08.137Z,19.38
2022-07-26T20:22:09.641Z,19.3
2022-07-26T20:24:11.240Z,19.34
2022-07-26T20:26:12.411Z,19.31
2022-07-26T20:28:14.018Z,19.2
2022-07-26T20:30:15.873Z,19.3
2022-07-26T20:32:17.316Z,19.35
2022-07-26T20:34:18.857Z,19.3
2022-07-26T20:36:19.861Z,19.21
2022-07-26T20:38:21.071Z,19.18
2022-07-26T20:40:22.362Z,19.08
2022-07-26T20:42:23.642Z,18.92
2022-07-26T20:44:28.339Z,18.8
2022-07-26T20:46:26.965Z,18.61
2022-07-26T20:48:28.309Z,18.49
2022-07-26T20:50:29.319Z,18.66
2022-07-26T20:52:30.757Z,18.65
2022-07-26T20:54:32.316Z,18.77
2022-07-26T20:56:34.082Z,18.83
2022-07-26T20:58:35.731Z,18.68
2022-07-26T21:00:37.300Z,18.53
2022-07-26T21:02:39.023Z,18.42
2022-07-26T21:04:40.061Z,18.27
2022-07-26T21:06:41.319Z,18.1
2022-07-26T21:08:42.568Z,17.99
2022-07-26T21:10:43.722Z,17.8
2022-07-26T21:12:45.263Z,17.62
2022-07-26T21:14:46.936Z,17.8
2022-07-26T21:16:48.925Z,17.93
2022-07-26T21:18:52.524Z,18.07
2022-07-26T21:20:51.009Z,18.13
2022-07-26T21:22:52.466Z,18.09
2022-07-26T21:24:53.549Z,18.01
2022-07-26T21:26:55.203Z,17.91
2022-07-26T21:28:56.417Z,17.76
2022-07-26T21:30:57.689Z,17.56
2022-07-26T21:32:58.727Z,17.47
2022-07-26T21:35:00.306Z,17.54
2022-07-26T21:37:01.531Z,17.52
2022-07-26T21:39:02.559Z,17.46
2022-07-26T21:41:04.151Z,17.43
2022-07-26T21:43:05.478Z,17.36
2022-07-26T21:45:06.783Z,17.33
2022-07-26T21:47:08.583Z,17.31
2022-07-26T21:49:09.989Z,17.24
2022-07-26T21:51:11.407Z,17.32
2022-07-26T21:53:13.062Z,17.36
2022-07-26T21:55:15.432Z,17.73
2022-07-26T21:57:16.485Z,18.07
2022-07-26T21:59:17.439Z,18.32
2022-07-26T22:01:18.908Z,17.87
2022-07-26T22:03:19.986Z,17.4
2022-07-26T22:05:21.515Z,17.31
2022-07-26T22:07:22.923Z,17.29
2022-07-26T22:09:24.075Z,17.3
2022-07-26T22:11:25.363Z,18.07
2022-07-26T22:13:26.632Z,18.17
2022-07-26T22:15:28.133Z,18.15
2022-07-26T22:17:29.389Z,18.27
2022-07-26T22:19:31.204Z,18.09
2022-07-26T22:21:32.114Z,17.57
2022-07-26T22:23:33.033Z,17.29
2022-07-26T22:25:34.044Z,17.04
2022-07-26T22:27:35.617Z,16.8
2022-07-26T22:29:39.725Z,16.55
2022-07-26T22:31:38.327Z,16.53
2022-07-26T22:33:39.624Z,16.83
2022-07-26T22:35:40.978Z,16.87
2022-07-26T22:37:42.194Z,16.98
2022-07-26T22:39:43.784Z,17.09
2022-07-26T22:42:05.371Z,16.71
2022-07-26T22:43:46.726Z,16.4
2022-07-26T22:45:48.620Z,16.25
2022-07-26T22:47:56.203Z,16.05
2022-07-26T22:49:51.712Z,15.99
2022-07-26T22:51:53.230Z,15.95
2022-07-26T22:53:55.083Z,16.04
2022-07-26T22:55:56.704Z,16.11
2022-07-26T22:57:58.256Z,16.21
2022-07-26T23:00:00.140Z,16.26
2022-07-26T23:02:01.438Z,16.25
2022-07-26T23:03:03.393Z,16.21
2022-07-26T23:05:04.825Z,16.11
2022-07-26T23:07:06.559Z,16.2
2022-07-26T23:09:07.880Z,16.19
2022-07-26T23:11:09.637Z,16.16
2022-07-26T23:13:10.569Z,15.96
2022-07-26T23:15:11.687Z,15.81
2022-07-26T23:17:12.987Z,15.78
2022-07-26T23:19:14.618Z,15.7
2022-07-26T23:21:15.796Z,15.93
2022-07-26T23:23:16.774Z,16.28
2022-07-26T23:25:17.689Z,16.34
2022-07-26T23:27:20.238Z,16.26
2022-07-26T23:31:22.090Z,16.08
2022-07-26T23:33:23.716Z,15.96
2022-07-26T23:35:25.194Z,15.82
2022-07-26T23:37:27.046Z,15.76
2022-07-26T23:39:28.841Z,15.68
2022-07-26T23:41:30.138Z,15.68
2022-07-26T23:43:31.517Z,15.67
2022-07-26T23:45:32.539Z,15.6
2022-07-26T23:47:33.554Z,15.54
2022-07-26T23:49:34.690Z,15.56
2022-07-26T23:51:35.654Z,15.68
2022-07-26T23:53:37.250Z,15.74
2022-07-26T23:55:38.570Z,15.77
2022-07-26T23:57:40.131Z,15.69
2022-07-26T23:59:41.410Z,15.56
